PWSweather.com
Personal Weather Stations
Station Observations
WISCHPK61
Green Bay Schmitt Park, Green Bay, WI 54311

Green Bay Schmitt ParkGreen Bay, WI 54311

Lat: 44.514277, Lon: -87.935067

Elevation: 735

Station Type: Acu Rite Pro Weather Center model 02032C

http://greenbayweathercam.com

High Low Average
Temperature 18.5°F-7.5°C -2.7°F-19.3°C 8.7°F-12.9°C
Dew Point 15.3°F-9.3°C -4.9°F-20.5°C 2.7°F-16.3°C
Winds 3.5 mph 5.6 kmh Calm Calm Calm SCalm S
Wind Gusts 5.8 mph9.3 kmh -- 1.0 mph1.6 kmh
Humidity 91% 54% 77%
Pressure 29.87 in1011.5 mb 29.49 in998.6 mb -
Precipitation 0.00 in0.0 mm - -
Hour Temp Dew Point Humidity Winds Wind Gusts Pressure Precip Precip Rate Daily Precip Total
12:00 AM 0.7°F-17.4°C -2.7°F-19.3°C 85% Calm Calm -- 29.87 in1011.5 mb - 0.00 in0.0 mm 0.00 in0.0 mm
12:15 AM 0.3°F-17.6°C -2.9°F-19.4°C 86% Calm Calm -- 29.86 in1011.2 mb - 0.00 in0.0 mm 0.00 in0.0 mm
12:30 AM 0.1°F-17.7°C -2.9°F-19.4°C 87% Calm Calm -- 29.87 in1011.5 mb - 0.00 in0.0 mm 0.00 in0.0 mm
12:45 AM 0.5°F-17.5°C -2.2°F-19.0°C 88% Calm Calm -- 29.87 in1011.5 mb - 0.00 in0.0 mm 0.00 in0.0 mm
01:00 AM 0.1°F-17.7°C -2.9°F-19.4°C 87% Calm Calm -- 29.86 in1011.2 mb - 0.00 in0.0 mm 0.00 in0.0 mm
01:15 AM 0.0°F-17.8°C -2.7°F-19.3°C 88% Calm Calm -- 29.86 in1011.2 mb - 0.00 in0.0 mm 0.00 in0.0 mm
01:30 AM -0.2°F-17.9°C -2.7°F-19.3°C 89% Calm Calm -- 29.86 in1011.2 mb - 0.00 in0.0 mm 0.00 in0.0 mm
01:45 AM -0.2°F-17.9°C -2.7°F-19.3°C 89% Calm Calm -- 29.86 in1011.2 mb - 0.00 in0.0 mm 0.00 in0.0 mm
02:00 AM -0.6°F-18.1°C -2.8°F-19.3°C 90% Calm Calm -- 29.87 in1011.5 mb - 0.00 in0.0 mm 0.00 in0.0 mm
02:15 AM -0.8°F-18.2°C -3.0°F-19.4°C 90% Calm Calm -- 29.87 in1011.5 mb - 0.00 in0.0 mm 0.00 in0.0 mm
02:30 AM -0.9°F-18.3°C -3.1°F-19.5°C 90% Calm Calm -- 29.87 in1011.5 mb - 0.00 in0.0 mm 0.00 in0.0 mm
02:45 AM -1.1°F-18.4°C -3.3°F-19.6°C 90% Calm Calm -- 29.87 in1011.5 mb - 0.00 in0.0 mm 0.00 in0.0 mm
03:00 AM -0.9°F-18.3°C -3.1°F-19.5°C 90% Calm Calm -- 29.86 in1011.2 mb - 0.00 in0.0 mm 0.00 in0.0 mm
03:15 AM -1.5°F-18.6°C -3.7°F-19.8°C 90% Calm Calm -- 29.86 in1011.2 mb - 0.00 in0.0 mm 0.00 in0.0 mm
03:30 AM -1.7°F-18.7°C -3.9°F-19.9°C 90% Calm Calm -- 29.86 in1011.2 mb - 0.00 in0.0 mm 0.00 in0.0 mm
03:45 AM -1.5°F-18.6°C -3.7°F-19.8°C 90% Calm Calm -- 29.86 in1011.2 mb - 0.00 in0.0 mm 0.00 in0.0 mm
04:00 AM -1.5°F-18.6°C -3.7°F-19.8°C 90% Calm Calm -- 29.86 in1011.2 mb - 0.00 in0.0 mm 0.00 in0.0 mm
04:15 AM -1.7°F-18.7°C -3.9°F-19.9°C 90% Calm Calm -- 29.85 in1010.8 mb - 0.00 in0.0 mm 0.00 in0.0 mm
04:30 AM -2.0°F-18.9°C -4.2°F-20.1°C 90% Calm Calm -- 29.85 in1010.8 mb - 0.00 in0.0 mm 0.00 in0.0 mm
04:45 AM -2.0°F-18.9°C -4.0°F-20.0°C 91% Calm Calm -- 29.85 in1010.8 mb - 0.00 in0.0 mm 0.00 in0.0 mm
05:00 AM -2.4°F-19.1°C -4.4°F-20.2°C 91% Calm Calm -- 29.85 in1010.8 mb - 0.00 in0.0 mm 0.00 in0.0 mm
05:15 AM -2.4°F-19.1°C -4.4°F-20.2°C 91% Calm Calm -- 29.85 in1010.8 mb - 0.00 in0.0 mm 0.00 in0.0 mm
05:30 AM -2.4°F-19.1°C -4.6°F-20.3°C 90% Calm Calm -- 29.85 in1010.8 mb - 0.00 in0.0 mm 0.00 in0.0 mm
05:45 AM -2.6°F-19.2°C -4.8°F-20.4°C 90% Calm Calm -- 29.85 in1010.8 mb - 0.00 in0.0 mm 0.00 in0.0 mm
06:00 AM -2.4°F-19.1°C -4.6°F-20.3°C 90% Calm Calm -- 29.85 in1010.8 mb - 0.00 in0.0 mm 0.00 in0.0 mm
06:15 AM -2.6°F-19.2°C -4.8°F-20.4°C 90% Calm Calm -- 29.84 in1010.5 mb - 0.00 in0.0 mm 0.00 in0.0 mm
06:30 AM -2.6°F-19.2°C -4.6°F-20.3°C 91% Calm Calm -- 29.84 in1010.5 mb - 0.00 in0.0 mm 0.00 in0.0 mm
06:45 AM -2.7°F-19.3°C -4.7°F-20.4°C 91% Calm Calm -- 29.83 in1010.2 mb - 0.00 in0.0 mm 0.00 in0.0 mm
07:00 AM -2.7°F-19.3°C -4.7°F-20.4°C 91% Calm Calm -- 29.84 in1010.5 mb - 0.00 in0.0 mm 0.00 in0.0 mm
07:15 AM -2.7°F-19.3°C -4.9°F-20.5°C 90% Calm Calm -- 29.83 in1010.2 mb - 0.00 in0.0 mm 0.00 in0.0 mm
07:30 AM -2.7°F-19.3°C -4.7°F-20.4°C 91% Calm Calm -- 29.82 in1009.8 mb - 0.00 in0.0 mm 0.00 in0.0 mm
07:45 AM -2.6°F-19.2°C -4.6°F-20.3°C 91% Calm Calm -- 29.82 in1009.8 mb - 0.00 in0.0 mm 0.00 in0.0 mm
08:00 AM -2.2°F-19.0°C -4.2°F-20.1°C 91% Calm Calm -- 29.82 in1009.8 mb - 0.00 in0.0 mm 0.00 in0.0 mm
08:15 AM -1.7°F-18.7°C -4.2°F-20.1°C 89% Calm Calm -- 29.83 in1010.2 mb - 0.00 in0.0 mm 0.00 in0.0 mm
08:30 AM -0.8°F-18.2°C -3.5°F-19.7°C 88% Calm Calm 1.2 mph1.9 kmh 29.82 in1009.8 mb - 0.00 in0.0 mm 0.00 in0.0 mm
09:00 AM 1.0°F-17.2°C -3.0°F-19.4°C 83% Calm Calm 1.2 mph1.9 kmh 29.82 in1009.8 mb - 0.00 in0.0 mm 0.00 in0.0 mm
09:15 AM 2.1°F-16.6°C -2.7°F-19.3°C 80% Calm Calm 1.2 mph1.9 kmh 29.81 in1009.5 mb - 0.00 in0.0 mm 0.00 in0.0 mm
09:30 AM 3.2°F-16.0°C -2.4°F-19.1°C 77% Calm Calm 1.2 mph1.9 kmh 29.81 in1009.5 mb - 0.00 in0.0 mm 0.00 in0.0 mm
09:45 AM 4.3°F-15.4°C -1.3°F-18.5°C 77% 1.2 mph SSE1.9 kmh SSE 2.3 mph3.7 kmh 29.81 in1009.5 mb - 0.00 in0.0 mm 0.00 in0.0 mm
10:00 AM 5.4°F-14.8°C -0.9°F-18.3°C 75% Calm Calm 1.2 mph1.9 kmh 29.80 in1009.1 mb - 0.00 in0.0 mm 0.00 in0.0 mm
10:15 AM 6.4°F-14.2°C -0.4°F-18.0°C 73% Calm Calm -- 29.80 in1009.1 mb - 0.00 in0.0 mm 0.00 in0.0 mm
10:30 AM 7.5°F-13.6°C 0.9°F-17.3°C 74% 1.2 mph ESE1.9 kmh ESE 1.2 mph1.9 kmh 29.79 in1008.8 mb - 0.00 in0.0 mm 0.00 in0.0 mm
10:45 AM 8.1°F-13.3°C 1.2°F-17.1°C 73% 1.2 mph SE1.9 kmh SE 1.2 mph1.9 kmh 29.79 in1008.8 mb - 0.00 in0.0 mm 0.00 in0.0 mm
11:00 AM 8.6°F-13.0°C 1.4°F-17.0°C 72% Calm Calm 1.2 mph1.9 kmh 29.78 in1008.5 mb - 0.00 in0.0 mm 0.00 in0.0 mm
11:15 AM 9.3°F-12.6°C 1.8°F-16.8°C 71% 1.2 mph WNW1.9 kmh WNW 1.2 mph1.9 kmh 29.77 in1008.1 mb - 0.00 in0.0 mm 0.00 in0.0 mm
11:30 AM 11.1°F-11.6°C 2.6°F-16.3°C 68% 1.2 mph SE1.9 kmh SE 2.3 mph3.7 kmh 29.76 in1007.8 mb - 0.00 in0.0 mm 0.00 in0.0 mm
11:45 AM 12.0°F-11.1°C 2.8°F-16.2°C 66% Calm Calm 2.3 mph3.7 kmh 29.74 in1007.1 mb - 0.00 in0.0 mm 0.00 in0.0 mm
12:00 PM 12.7°F-10.7°C 2.5°F-16.4°C 63% 1.2 mph SSE1.9 kmh SSE 3.5 mph5.6 kmh 29.74 in1007.1 mb - 0.00 in0.0 mm 0.00 in0.0 mm
12:15 PM 13.9°F-10.1°C 3.3°F-15.9°C 62% Calm Calm -- 29.71 in1006.1 mb - 0.00 in0.0 mm 0.00 in0.0 mm
12:30 PM 18.5°F-7.5°C 4.6°F-15.2°C 54% 3.5 mph SW5.6 kmh SW 3.5 mph5.6 kmh 29.71 in1006.1 mb - 0.00 in0.0 mm 0.00 in0.0 mm
12:45 PM 18.3°F-7.6°C 4.8°F-15.1°C 55% 1.2 mph W1.9 kmh W 1.2 mph1.9 kmh 29.70 in1005.8 mb - 0.00 in0.0 mm 0.00 in0.0 mm
01:00 PM 18.0°F-7.8°C 5.3°F-14.8°C 57% Calm Calm 1.2 mph1.9 kmh 29.69 in1005.4 mb - 0.00 in0.0 mm 0.00 in0.0 mm
01:15 PM 17.5°F-8.1°C 4.8°F-15.1°C 57% 2.3 mph ENE3.7 kmh ENE 4.6 mph7.4 kmh 29.67 in1004.7 mb - 0.00 in0.0 mm 0.00 in0.0 mm
01:30 PM 16.8°F-8.4°C 4.1°F-15.5°C 57% 1.2 mph SE1.9 kmh SE 2.3 mph3.7 kmh 29.66 in1004.4 mb - 0.00 in0.0 mm 0.00 in0.0 mm
01:45 PM 17.2°F-8.2°C 4.6°F-15.2°C 57% 1.2 mph SSE1.9 kmh SSE -- 29.65 in1004.1 mb - 0.00 in0.0 mm 0.00 in0.0 mm
02:00 PM 17.1°F-8.3°C 4.5°F-15.3°C 57% 2.3 mph SE3.7 kmh SE 3.5 mph5.6 kmh 29.64 in1003.7 mb - 0.00 in0.0 mm 0.00 in0.0 mm
02:15 PM 17.1°F-8.3°C 4.1°F-15.5°C 56% 1.2 mph S1.9 kmh S 2.3 mph3.7 kmh 29.63 in1003.4 mb - 0.00 in0.0 mm 0.00 in0.0 mm
02:30 PM 16.3°F-8.7°C 3.3°F-15.9°C 56% Calm Calm 1.2 mph1.9 kmh 29.62 in1003.0 mb - 0.00 in0.0 mm 0.00 in0.0 mm
02:45 PM 16.8°F-8.4°C 4.5°F-15.3°C 58% Calm Calm -- 29.62 in1003.0 mb - 0.00 in0.0 mm 0.00 in0.0 mm
03:00 PM 16.9°F-8.4°C 4.3°F-15.4°C 57% Calm Calm -- 29.62 in1003.0 mb - 0.00 in0.0 mm 0.00 in0.0 mm
03:15 PM 16.5°F-8.6°C 4.7°F-15.2°C 59% Calm Calm -- 29.61 in1002.7 mb - 0.00 in0.0 mm 0.00 in0.0 mm
03:30 PM 16.5°F-8.6°C 5.4°F-14.8°C 61% 1.2 mph SE1.9 kmh SE 2.3 mph3.7 kmh 29.61 in1002.7 mb - 0.00 in0.0 mm 0.00 in0.0 mm
03:45 PM 16.3°F-8.7°C 5.5°F-14.7°C 62% Calm Calm -- 29.61 in1002.7 mb - 0.00 in0.0 mm 0.00 in0.0 mm
04:00 PM 16.0°F-8.9°C 4.9°F-15.1°C 61% Calm Calm -- 29.60 in1002.4 mb - 0.00 in0.0 mm 0.00 in0.0 mm
04:15 PM 16.0°F-8.9°C 4.9°F-15.1°C 61% Calm Calm 2.3 mph3.7 kmh 29.59 in1002.0 mb - 0.00 in0.0 mm 0.00 in0.0 mm
04:30 PM 15.9°F-8.9°C 5.2°F-14.9°C 62% 1.2 mph SSE1.9 kmh SSE 2.3 mph3.7 kmh 29.59 in1002.0 mb - 0.00 in0.0 mm 0.00 in0.0 mm
04:45 PM 15.7°F-9.1°C 5.3°F-14.8°C 63% Calm Calm 1.2 mph1.9 kmh 29.60 in1002.4 mb - 0.00 in0.0 mm 0.00 in0.0 mm
05:00 PM 15.6°F-9.1°C 5.6°F-14.7°C 64% 1.2 mph S1.9 kmh S -- 29.59 in1002.0 mb - 0.00 in0.0 mm 0.00 in0.0 mm
05:15 PM 15.6°F-9.1°C 6.3°F-14.3°C 66% Calm Calm -- 29.59 in1002.0 mb - 0.00 in0.0 mm 0.00 in0.0 mm
05:30 PM 15.8°F-9.0°C 6.8°F-14.0°C 67% Calm Calm 2.3 mph3.7 kmh 29.58 in1001.7 mb - 0.00 in0.0 mm 0.00 in0.0 mm
05:45 PM 15.8°F-9.0°C 6.4°F-14.2°C 66% Calm Calm 2.3 mph3.7 kmh 29.58 in1001.7 mb - 0.00 in0.0 mm 0.00 in0.0 mm
06:00 PM 15.8°F-9.0°C 6.8°F-14.0°C 67% 1.2 mph SE1.9 kmh SE 1.2 mph1.9 kmh 29.58 in1001.7 mb - 0.00 in0.0 mm 0.00 in0.0 mm
06:15 PM 15.8°F-9.0°C 7.1°F-13.8°C 68% 1.2 mph S1.9 kmh S 1.2 mph1.9 kmh 29.57 in1001.4 mb - 0.00 in0.0 mm 0.00 in0.0 mm
06:30 PM 15.8°F-9.0°C 6.8°F-14.0°C 67% 2.3 mph SSE3.7 kmh SSE 3.5 mph5.6 kmh 29.57 in1001.4 mb - 0.00 in0.0 mm 0.00 in0.0 mm
06:45 PM 15.8°F-9.0°C 7.7°F-13.5°C 70% 1.2 mph S1.9 kmh S 2.3 mph3.7 kmh 29.56 in1001.0 mb - 0.00 in0.0 mm 0.00 in0.0 mm
07:00 PM 15.8°F-9.0°C 8.1°F-13.3°C 71% 1.2 mph SE1.9 kmh SE 2.3 mph3.7 kmh 29.56 in1001.0 mb - 0.00 in0.0 mm 0.00 in0.0 mm
07:15 PM 16.0°F-8.9°C 8.6°F-13.0°C 72% 1.2 mph E1.9 kmh E 3.5 mph5.6 kmh 29.56 in1001.0 mb - 0.00 in0.0 mm 0.00 in0.0 mm
07:30 PM 16.0°F-8.9°C 8.6°F-13.0°C 72% Calm Calm -- 29.55 in1000.7 mb - 0.00 in0.0 mm 0.00 in0.0 mm
07:45 PM 16.2°F-8.8°C 9.4°F-12.6°C 74% Calm Calm -- 29.55 in1000.7 mb - 0.00 in0.0 mm 0.00 in0.0 mm
08:00 PM 16.3°F-8.7°C 9.5°F-12.5°C 74% Calm Calm 2.3 mph3.7 kmh 29.55 in1000.7 mb - 0.00 in0.0 mm 0.00 in0.0 mm
08:15 PM 16.3°F-8.7°C 10.1°F-12.2°C 76% 1.2 mph ENE1.9 kmh ENE 1.2 mph1.9 kmh 29.55 in1000.7 mb - 0.00 in0.0 mm 0.00 in0.0 mm
08:30 PM 16.5°F-8.6°C 10.5°F-11.9°C 77% 1.2 mph ESE1.9 kmh ESE 1.2 mph1.9 kmh 29.54 in1000.3 mb - 0.00 in0.0 mm 0.00 in0.0 mm
08:45 PM 16.5°F-8.6°C 11.1°F-11.6°C 79% 1.2 mph SE1.9 kmh SE -- 29.54 in1000.3 mb - 0.00 in0.0 mm 0.00 in0.0 mm
09:00 PM 16.7°F-8.5°C 11.9°F-11.2°C 81% Calm Calm 1.2 mph1.9 kmh 29.53 in1000.0 mb - 0.00 in0.0 mm 0.00 in0.0 mm
09:15 PM 16.9°F-8.4°C 12.4°F-10.9°C 82% 1.2 mph S1.9 kmh S 2.3 mph3.7 kmh 29.52 in999.7 mb - 0.00 in0.0 mm 0.00 in0.0 mm
09:30 PM 16.9°F-8.4°C 13.2°F-10.4°C 85% 1.2 mph SW1.9 kmh SW 1.2 mph1.9 kmh 29.52 in999.7 mb - 0.00 in0.0 mm 0.00 in0.0 mm
09:45 PM 17.1°F-8.3°C 13.6°F-10.2°C 86% 2.3 mph NE3.7 kmh NE 3.5 mph5.6 kmh 29.52 in999.7 mb - 0.00 in0.0 mm 0.00 in0.0 mm
10:00 PM 17.4°F-8.1°C 13.9°F-10.1°C 86% 1.2 mph S1.9 kmh S 1.2 mph1.9 kmh 29.52 in999.7 mb - 0.00 in0.0 mm 0.00 in0.0 mm
10:15 PM 17.4°F-8.1°C 14.2°F-9.9°C 87% 1.2 mph SE1.9 kmh SE 2.3 mph3.7 kmh 29.52 in999.7 mb - 0.00 in0.0 mm 0.00 in0.0 mm
10:30 PM 17.6°F-8.0°C 14.4°F-9.8°C 87% Calm Calm 3.5 mph5.6 kmh 29.51 in999.3 mb - 0.00 in0.0 mm 0.00 in0.0 mm
10:45 PM 17.8°F-7.9°C 14.8°F-9.6°C 88% Calm Calm 1.2 mph1.9 kmh 29.51 in999.3 mb - 0.00 in0.0 mm 0.00 in0.0 mm
11:00 PM 18.0°F-7.8°C 15.3°F-9.3°C 89% Calm Calm -- 29.50 in999.0 mb - 0.00 in0.0 mm 0.00 in0.0 mm
11:15 PM 18.1°F-7.7°C 14.6°F-9.7°C 86% 1.2 mph WSW1.9 kmh WSW 4.6 mph7.4 kmh 29.49 in998.6 mb - 0.00 in0.0 mm 0.00 in0.0 mm
11:30 PM 18.3°F-7.6°C 14.8°F-9.6°C 86% 1.2 mph S1.9 kmh S 1.2 mph1.9 kmh 29.49 in998.6 mb - 0.00 in0.0 mm 0.00 in0.0 mm
11:45 PM 18.5°F-7.5°C 14.7°F-9.6°C 85% 2.3 mph S3.7 kmh S 5.8 mph9.3 kmh 29.49 in998.6 mb - 0.00 in0.0 mm 0.00 in0.0 mm